createdAt,value
2022-09-12T00:01:08.446Z,99327.09
2022-09-12T00:03:40.132Z,99330.41
2022-09-12T00:06:13.687Z,99330.41
2022-09-12T00:08:45.196Z,99330.33
2022-09-12T00:11:15.807Z,99328.27
2022-09-12T00:13:46.114Z,99320.53
2022-09-12T00:16:20.009Z,99329.41
2022-09-12T00:18:50.939Z,99322.25
2022-09-12T00:21:22.304Z,99323.98
2022-09-12T00:23:53.702Z,99323.98
2022-09-12T00:26:24.301Z,99315.33
2022-09-12T00:28:54.934Z,99315.33
2022-09-12T00:31:26.712Z,99309.22
2022-09-12T00:33:59.349Z,99310.88
2022-09-12T00:36:30.563Z,99318.05
2022-09-12T00:39:01.108Z,99307.65
2022-09-12T00:41:33.927Z,99304.67
2022-09-12T00:44:25.272Z,99304.14
2022-09-12T00:46:58.457Z,99308.47
2022-09-12T00:49:43.605Z,99310.84
2022-09-12T00:52:31.797Z,99311.27
2022-09-12T00:55:31.650Z,99302.05
2022-09-12T00:58:04.812Z,99302.05
2022-09-12T01:00:35.775Z,99294.27
2022-09-12T01:03:11.344Z,99294.27
2022-09-12T01:05:44.652Z,99302.83
2022-09-12T01:08:15.035Z,99299.08
2022-09-12T01:10:47.239Z,99293.13
2022-09-12T01:13:17.939Z,99293.13
2022-09-12T01:15:48.611Z,99295.76
2022-09-12T01:18:37.162Z,99295.19
2022-09-12T01:21:13.325Z,99301.66
2022-09-12T01:23:58.458Z,99300.37
2022-09-12T01:26:55.752Z,99294.48
2022-09-12T01:29:35.174Z,99294.48
2022-09-12T01:32:14.303Z,99292.06
2022-09-12T01:35:05.453Z,99293.16
2022-09-12T01:37:38.750Z,99293.16
2022-09-12T01:40:26.895Z,99296.06
2022-09-12T01:43:00.163Z,99296.06
2022-09-12T01:45:35.739Z,99297.16
2022-09-12T01:48:17.734Z,99306.28
2022-09-12T01:51:06.961Z,99303.48
2022-09-12T01:53:46.300Z,99303.41
2022-09-12T01:56:22.439Z,99292.39
2022-09-12T01:59:02.105Z,99292.39
2022-09-12T02:01:38.856Z,99293.80
2022-09-12T02:04:18.054Z,99292.70
2022-09-12T02:07:00.006Z,99292.70
2022-09-12T02:09:42.823Z,99294.84
2022-09-12T02:12:16.167Z,99290.21
2022-09-12T02:14:52.317Z,99293.23
2022-09-12T02:17:25.983Z,99292.95
2022-09-12T02:19:59.251Z,99292.95
2022-09-12T02:22:31.900Z,99299.86
2022-09-12T02:25:22.859Z,99295.36
2022-09-12T02:28:01.499Z,99289.66
2022-09-12T02:30:35.200Z,99289.66
2022-09-12T02:33:14.389Z,99283.47
2022-09-12T02:35:50.302Z,99286.77
2022-09-12T02:38:35.371Z,99286.77
2022-09-12T02:41:05.700Z,99287.27
2022-09-12T02:43:36.889Z,99293.17
2022-09-12T02:46:10.185Z,99279.34
2022-09-12T02:48:43.756Z,99282.58
2022-09-12T02:51:21.605Z,99276.42
2022-09-12T02:53:55.289Z,99278.84
2022-09-12T02:56:28.394Z,99284.80
2022-09-12T02:59:07.173Z,99284.80
2022-09-12T03:01:49.444Z,99283.75
2022-09-12T03:04:39.428Z,99283.75
2022-09-12T03:07:32.377Z,99289.78
2022-09-12T03:10:25.986Z,99277.59
2022-09-12T03:13:28.251Z,99283.02
2022-09-12T03:16:04.361Z,99281.47
2022-09-12T03:24:46.491Z,99293.89
2022-09-12T03:27:24.815Z,99303.72
2022-09-12T03:29:57.712Z,99298.42
2022-09-12T03:32:49.145Z,99298.42
2022-09-12T03:35:23.234Z,99301.22
2022-09-12T03:39:06.730Z,99294.67
2022-09-12T03:40:25.977Z,99299.53
2022-09-12T03:43:02.048Z,99299.53
2022-09-12T03:45:38.710Z,99293.16
2022-09-12T03:48:20.561Z,99293.16
2022-09-12T03:51:04.947Z,99287.70
2022-09-12T03:53:41.725Z,99285.97
2022-09-12T03:56:12.881Z,99277.28
2022-09-12T03:58:43.216Z,99278.55
2022-09-12T04:01:16.437Z,99284.20
2022-09-12T04:03:49.622Z,99277.95
2022-09-12T04:06:22.705Z,99281.84
2022-09-12T04:09:15.641Z,99287.66
2022-09-12T04:11:47.879Z,99288.98
2022-09-12T04:14:18.663Z,99288.98
2022-09-12T04:16:51.669Z,99290.89
2022-09-12T04:19:23.504Z,99290.73
2022-09-12T04:21:55.827Z,99290.73
2022-09-12T04:24:26.356Z,99303.61
2022-09-12T04:26:58.325Z,99303.61
2022-09-12T04:29:28.512Z,99297.88
2022-09-12T04:32:01.047Z,99291.55
2022-09-12T04:34:40.347Z,99287.72
2022-09-12T04:37:15.033Z,99300.00
2022-09-12T04:39:45.504Z,99303.73
2022-09-12T04:42:23.328Z,99303.08
2022-09-12T04:44:56.796Z,99306.47
2022-09-12T04:47:27.330Z,99307.14
2022-09-12T04:49:58.010Z,99307.14
2022-09-12T04:52:28.662Z,99305.30
2022-09-12T04:54:59.113Z,99299.48
2022-09-12T04:57:35.059Z,99295.23
2022-09-12T05:00:07.824Z,99292.37
2022-09-12T05:02:56.258Z,99292.37
2022-09-12T05:05:26.510Z,99297.06
2022-09-12T05:07:57.771Z,99298.31
2022-09-12T05:10:29.606Z,99296.41
2022-09-12T05:13:01.497Z,99311.33
2022-09-12T05:15:31.783Z,99307.30
2022-09-12T05:18:02.605Z,99307.30
2022-09-12T05:20:34.604Z,99310.66
2022-09-12T05:23:04.699Z,99308.37
2022-09-12T05:25:35.402Z,99308.37
2022-09-12T05:28:05.731Z,99316.52
2022-09-12T05:30:37.223Z,99306.61
2022-09-12T05:33:07.590Z,99320.11
2022-09-12T05:35:38.001Z,99322.09
2022-09-12T05:38:11.325Z,99317.80
2022-09-12T05:40:43.201Z,99319.94
2022-09-12T05:43:14.534Z,99329.97
2022-09-12T05:45:47.802Z,99328.53
2022-09-12T05:48:20.367Z,99328.53
2022-09-12T05:50:51.397Z,99335.63
2022-09-12T05:53:22.109Z,99335.61
2022-09-12T05:55:55.315Z,99338.71
2022-09-12T05:58:28.511Z,99337.37
2022-09-12T06:01:05.444Z,99336.42
2022-09-12T06:06:38.214Z,99336.08
2022-09-12T06:09:11.502Z,99334.82
2022-09-12T06:11:43.037Z,99334.66
2022-09-12T06:14:15.997Z,99339.89
2022-09-12T06:16:51.008Z,99339.29
2022-09-12T06:19:26.406Z,99343.21
2022-09-12T06:22:00.328Z,99341.90
2022-09-12T06:24:32.832Z,99334.91
2022-09-12T06:27:04.462Z,99331.02
2022-09-12T06:29:35.105Z,99331.16
2022-09-12T06:32:07.102Z,99330.41
2022-09-12T06:34:39.247Z,99321.77
2022-09-12T06:37:16.402Z,99309.28
2022-09-12T06:39:44.571Z,99309.28
2022-09-12T06:42:19.565Z,99305.44
2022-09-12T06:44:55.176Z,99308.06
2022-09-12T06:47:29.481Z,99312.42
2022-09-12T06:50:04.233Z,99319.19
2022-09-12T06:52:42.902Z,99319.19
2022-09-12T06:55:18.863Z,99312.85
2022-09-12T06:57:46.128Z,99315.46
2022-09-12T07:00:16.483Z,99314.62
2022-09-12T07:02:50.984Z,99308.92
2022-09-12T07:05:21.502Z,99308.92
2022-09-12T07:07:52.897Z,99305.81
2022-09-12T07:10:23.493Z,99311.98
2022-09-12T07:12:54.344Z,99313.03
2022-09-12T07:15:24.637Z,99313.03
2022-09-12T07:17:56.317Z,99309.52
2022-09-12T07:20:26.626Z,99303.34
2022-09-12T07:22:57.668Z,99313.18
2022-09-12T07:25:28.029Z,99311.72
2022-09-12T07:27:59.649Z,99313.52
2022-09-12T07:30:30.138Z,99317.60
2022-09-12T07:33:00.709Z,99317.60
2022-09-12T07:35:36.194Z,99322.50
2022-09-12T07:38:09.196Z,99315.12
2022-09-12T07:40:40.051Z,99315.12
2022-09-12T07:43:10.954Z,99314.42
2022-09-12T07:45:41.389Z,99330.08
2022-09-12T07:48:12.529Z,99330.08
2022-09-12T07:50:46.011Z,99330.89
2022-09-12T07:53:16.537Z,99329.70
2022-09-12T07:55:49.714Z,99323.09
2022-09-12T07:58:20.484Z,99322.34
2022-09-12T08:00:50.931Z,99330.52
2022-09-12T08:03:21.408Z,99330.52
2022-09-12T08:05:51.742Z,99328.17
2022-09-12T08:08:22.810Z,99320.17
2022-09-12T08:10:59.688Z,99326.22
2022-09-12T08:13:38.372Z,99316.98
2022-09-12T08:16:13.048Z,99316.98
2022-09-12T08:18:44.105Z,99304.95
2022-09-12T08:21:23.203Z,99304.95
2022-09-12T08:23:58.323Z,99311.69
2022-09-12T08:26:32.151Z,99319.83
2022-09-12T08:29:03.091Z,99327.22
2022-09-12T08:31:34.913Z,99327.22
2022-09-12T08:34:06.055Z,99329.94
2022-09-12T08:36:36.742Z,99328.77
2022-09-12T08:39:08.052Z,99326.80
2022-09-12T08:41:41.865Z,99315.37
2022-09-12T08:44:46.404Z,99305.22
2022-09-12T08:47:35.968Z,99305.23
2022-09-12T08:50:26.926Z,99308.09
2022-09-12T08:53:16.604Z,99306.38
2022-09-12T08:55:57.165Z,99306.38
2022-09-12T08:58:32.242Z,99316.04
2022-09-12T09:01:20.237Z,99315.06
2022-09-12T09:04:37.808Z,99322.70
2022-09-12T09:06:59.229Z,99323.13
2022-09-12T09:09:47.903Z,99316.30
2022-09-12T09:12:51.660Z,99304.02
2022-09-12T09:15:51.337Z,99304.02
2022-09-12T09:18:24.933Z,99292.75
2022-09-12T09:21:20.226Z,99296.61
2022-09-12T09:23:56.930Z,99296.61
2022-09-12T09:26:45.715Z,99288.36
2022-09-12T09:29:19.279Z,99292.99
2022-09-12T09:32:07.412Z,99287.61
2022-09-12T09:34:40.272Z,99288.19
2022-09-12T09:37:31.353Z,99288.19
2022-09-12T09:40:13.745Z,99288.70
2022-09-12T09:42:59.902Z,99288.70
2022-09-12T09:45:34.581Z,99284.74
2022-09-12T09:48:18.362Z,99278.17
2022-09-12T09:50:50.438Z,99272.70
2022-09-12T09:53:26.646Z,99272.70
2022-09-12T09:55:59.231Z,99278.38
2022-09-12T09:58:35.860Z,99273.61
2022-09-12T10:01:08.778Z,99273.61
2022-09-12T10:03:40.567Z,99272.97
2022-09-12T10:06:25.845Z,99270.78
2022-09-12T10:09:17.254Z,99281.20
2022-09-12T10:11:49.222Z,99283.42
2022-09-12T10:14:35.092Z,99281.34
2022-09-12T10:17:27.961Z,99285.06
2022-09-12T10:20:19.771Z,99278.79
2022-09-12T10:22:34.213Z,99284.87
2022-09-12T10:25:12.349Z,99289.47
2022-09-12T10:27:49.925Z,99283.45
2022-09-12T10:30:21.861Z,99293.77
2022-09-12T10:32:52.694Z,99298.11
2022-09-12T10:35:31.556Z,99306.30
2022-09-12T10:38:04.858Z,99313.77
2022-09-12T10:40:44.624Z,99313.77
2022-09-12T10:43:37.506Z,99317.14
2022-09-12T10:46:20.668Z,99311.23
2022-09-12T10:48:53.227Z,99313.81
2022-09-12T10:51:28.860Z,99321.45
2022-09-12T10:54:01.893Z,99308.55
2022-09-12T10:56:38.274Z,99300.05
2022-09-12T10:59:29.856Z,99285.13
2022-09-12T11:02:21.232Z,99278.50
2022-09-12T11:05:03.877Z,99273.67
2022-09-12T11:07:43.121Z,99273.67
2022-09-12T11:10:31.933Z,99273.23
2022-09-12T11:13:19.179Z,99278.03
2022-09-12T11:16:17.208Z,99276.27
2022-09-12T11:19:18.858Z,99267.57
2022-09-12T11:22:17.175Z,99267.57
2022-09-12T11:24:50.428Z,99271.48
2022-09-12T11:27:29.242Z,99276.00
2022-09-12T11:30:07.079Z,99271.38
2022-09-12T11:35:40.559Z,99278.58
2022-09-12T11:38:50.516Z,99271.48
2022-09-12T11:41:30.727Z,99256.30
2022-09-12T11:44:27.694Z,99256.30
2022-09-12T11:47:00.582Z,99256.88
2022-09-12T11:49:35.688Z,99255.83
2022-09-12T11:52:08.622Z,99255.83
2022-09-12T11:54:57.234Z,99252.34
2022-09-12T11:57:53.016Z,99257.05
2022-09-12T12:00:46.536Z,99257.05
2022-09-12T12:06:09.501Z,99232.34
2022-09-12T12:08:42.492Z,99224.63
2022-09-12T12:11:16.833Z,99220.24
2022-09-12T12:13:56.282Z,99230.45
2022-09-12T12:16:29.389Z,99241.61
2022-09-12T12:19:06.501Z,99230.14
2022-09-12T12:21:46.325Z,99241.12
2022-09-12T12:24:24.860Z,99241.12
2022-09-12T12:27:00.795Z,99226.41
2022-09-12T12:29:49.829Z,99214.22
2022-09-12T12:32:22.066Z,99214.22
2022-09-12T12:34:55.377Z,99198.01
2022-09-12T12:37:31.274Z,99204.26
2022-09-12T12:40:07.716Z,99198.98
2022-09-12T12:42:40.927Z,99211.23
2022-09-12T12:48:12.861Z,99203.52
2022-09-12T12:50:43.333Z,99205.78
2022-09-12T12:53:25.238Z,99197.52
2022-09-12T12:55:57.552Z,99199.38
2022-09-12T12:58:30.699Z,99199.38
2022-09-12T13:01:18.508Z,99194.74
2022-09-12T13:03:56.885Z,99209.53
2022-09-12T13:06:38.525Z,99209.53
2022-09-12T13:09:20.548Z,99201.97
2022-09-12T13:11:59.752Z,99198.48
2022-09-12T13:14:53.751Z,99198.48
2022-09-12T13:17:41.780Z,99204.65
2022-09-12T13:20:28.710Z,99204.65
2022-09-12T13:22:59.356Z,99211.34
2022-09-12T13:25:37.379Z,99213.46
2022-09-12T13:28:17.037Z,99209.16
2022-09-12T13:31:03.418Z,99198.73
2022-09-12T13:33:43.246Z,99198.73
2022-09-12T13:36:33.057Z,99192.10
2022-09-12T13:39:28.392Z,99193.03
2022-09-12T13:42:26.407Z,99195.69
2022-09-12T13:45:08.543Z,99195.69
2022-09-12T13:47:47.904Z,99189.66
2022-09-12T13:53:20.214Z,99185.63
2022-09-12T13:56:00.192Z,99182.70
2022-09-12T13:58:33.745Z,99182.84
2022-09-12T14:01:15.337Z,99179.83
2022-09-12T14:04:17.454Z,99185.20
2022-09-12T14:06:53.439Z,99185.20
2022-09-12T14:09:32.360Z,99191.21
2022-09-12T14:12:08.653Z,99188.34
2022-09-12T14:14:46.932Z,99188.34
2022-09-12T14:17:26.493Z,99191.22
2022-09-12T14:19:59.025Z,99187.77
2022-09-12T14:22:35.029Z,99193.23
2022-09-12T14:25:09.920Z,99180.01
2022-09-12T14:27:43.199Z,99180.01
2022-09-12T14:30:31.273Z,99183.27
2022-09-12T14:33:25.043Z,99191.55
2022-09-12T14:36:15.430Z,99187.95
2022-09-12T14:38:48.551Z,99188.41
2022-09-12T14:41:41.958Z,99188.41
2022-09-12T14:44:33.056Z,99192.13
2022-09-12T14:47:12.409Z,99192.42
2022-09-12T14:49:45.705Z,99192.42
2022-09-12T14:52:34.941Z,99184.45
2022-09-12T14:55:17.907Z,99184.45
2022-09-12T14:57:48.339Z,99189.60
2022-09-12T15:00:47.625Z,99189.41
2022-09-12T15:03:08.414Z,99195.72
2022-09-12T15:05:44.450Z,99195.72
2022-09-12T15:08:17.836Z,99192.13
2022-09-12T15:10:51.091Z,99192.13
2022-09-12T15:13:24.841Z,99191.95
2022-09-12T15:16:00.222Z,99191.95
2022-09-12T15:18:31.724Z,99187.92
2022-09-12T15:21:04.592Z,99192.16
2022-09-12T15:23:50.069Z,99192.16
2022-09-12T15:26:23.661Z,99202.23
2022-09-12T15:28:54.362Z,99202.23
2022-09-12T15:31:27.915Z,99201.00
2022-09-12T15:34:03.968Z,99198.53
2022-09-12T15:36:38.713Z,99198.53
2022-09-12T15:39:17.615Z,99200.07
2022-09-12T15:41:44.876Z,99200.07
2022-09-12T15:44:15.799Z,99199.01
2022-09-12T15:46:46.814Z,99204.84
2022-09-12T15:49:17.121Z,99191.36
2022-09-12T15:51:47.754Z,99195.99
2022-09-12T15:57:15.661Z,99200.45
2022-09-12T15:59:47.897Z,99198.84
2022-09-12T16:02:22.006Z,99204.52
2022-09-12T16:04:55.170Z,99210.27
2022-09-12T16:07:28.394Z,99210.27
2022-09-12T16:10:07.463Z,99210.77
2022-09-12T16:12:39.441Z,99215.33
2022-09-12T16:15:15.894Z,99208.17
2022-09-12T16:17:50.500Z,99208.17
2022-09-12T16:20:23.954Z,99211.25
2022-09-12T16:22:54.521Z,99216.22
2022-09-12T16:25:31.540Z,99216.08
2022-09-12T16:28:05.074Z,99209.83
2022-09-12T16:30:39.047Z,99209.83
2022-09-12T16:33:10.218Z,99222.27
2022-09-12T16:35:40.847Z,99215.86
2022-09-12T16:38:11.476Z,99221.63
2022-09-12T16:40:42.409Z,99218.19
2022-09-12T16:43:13.301Z,99221.83
2022-09-12T16:46:04.759Z,99223.00
2022-09-12T16:48:37.909Z,99231.44
2022-09-12T16:51:08.462Z,99236.28
2022-09-12T16:53:43.881Z,99238.03
2022-09-12T16:56:18.111Z,99238.03
2022-09-12T16:58:50.154Z,99234.80
2022-09-12T17:01:23.706Z,99240.05
2022-09-12T17:03:59.136Z,99237.23
2022-09-12T17:06:33.040Z,99230.02
2022-09-12T17:09:05.147Z,99238.22
2022-09-12T17:11:39.363Z,99219.22
2022-09-12T17:14:11.010Z,99234.55
2022-09-12T17:16:51.877Z,99227.21
2022-09-12T17:19:27.511Z,99227.21
2022-09-12T17:22:08.246Z,99235.41
2022-09-12T17:24:38.638Z,99235.41
2022-09-12T17:27:08.874Z,99237.73
2022-09-12T17:29:39.832Z,99237.73
2022-09-12T17:32:13.420Z,99241.89
2022-09-12T17:34:46.155Z,99239.44
2022-09-12T17:37:18.059Z,99239.44
2022-09-12T17:39:48.498Z,99233.48
2022-09-12T17:42:19.153Z,99226.28
2022-09-12T17:44:49.567Z,99235.08
2022-09-12T17:47:22.419Z,99235.08
2022-09-12T17:49:52.888Z,99238.45
2022-09-12T17:52:26.447Z,99238.45
2022-09-12T17:54:56.872Z,99236.81
2022-09-12T17:57:28.890Z,99234.89
2022-09-12T17:59:59.697Z,99217.85
2022-09-12T18:02:33.067Z,99234.21
2022-09-12T18:05:02.086Z,99234.21
2022-09-12T18:07:32.792Z,99229.09
2022-09-12T18:10:03.604Z,99219.87
2022-09-12T18:12:36.244Z,99219.47
2022-09-12T18:15:09.989Z,99219.47
2022-09-12T18:17:40.382Z,99204.48
2022-09-12T18:20:10.796Z,99209.47
2022-09-12T18:22:43.770Z,99209.47
2022-09-12T18:25:17.602Z,99207.67
2022-09-12T18:27:48.822Z,99199.92
2022-09-12T18:30:21.957Z,99202.07
2022-09-12T18:32:53.316Z,99200.84
2022-09-12T18:35:30.033Z,99181.26
2022-09-12T18:38:00.797Z,99198.80
2022-09-12T18:40:41.598Z,99197.02
2022-09-12T18:43:13.673Z,99204.22
2022-09-12T18:45:45.535Z,99197.88
2022-09-12T18:48:16.093Z,99197.88
2022-09-12T18:50:50.749Z,99201.42
2022-09-12T18:53:23.320Z,99202.39
2022-09-12T18:55:53.906Z,99197.12
2022-09-12T18:58:24.214Z,99197.19
2022-09-12T19:00:54.819Z,99197.19
2022-09-12T19:03:25.391Z,99190.84
2022-09-12T19:06:07.435Z,99201.49
2022-09-12T19:08:40.887Z,99175.69
2022-09-12T19:11:11.820Z,99175.69
2022-09-12T19:13:44.765Z,99170.59
2022-09-12T19:16:17.759Z,99174.45
2022-09-12T19:18:51.299Z,99172.36
2022-09-12T19:21:42.985Z,99172.36
2022-09-12T19:24:17.706Z,99169.50
2022-09-12T19:26:54.931Z,99157.14
2022-09-12T19:29:35.131Z,99158.91
2022-09-12T19:32:09.094Z,99158.84
2022-09-12T19:34:47.040Z,99141.83
2022-09-12T19:37:17.496Z,99155.52
2022-09-12T19:39:48.562Z,99156.67
2022-09-12T19:42:22.297Z,99156.67
2022-09-12T19:44:52.739Z,99154.50
2022-09-12T19:47:24.596Z,99144.23
2022-09-12T19:49:55.517Z,99148.65
2022-09-12T19:52:26.223Z,99148.65
2022-09-12T19:54:58.072Z,99143.62
2022-09-12T19:57:34.213Z,99143.62
2022-09-12T20:00:22.251Z,99148.30
2022-09-12T20:02:54.175Z,99150.62
2022-09-12T20:05:24.794Z,99156.20
2022-09-12T20:08:00.673Z,99149.64
2022-09-12T20:10:31.033Z,99147.68
2022-09-12T20:13:01.374Z,99149.52
2022-09-12T20:15:31.799Z,99149.52
2022-09-12T20:18:02.902Z,99146.92
2022-09-12T20:20:33.570Z,99146.28
2022-09-12T20:23:03.765Z,99151.52
2022-09-12T20:25:35.080Z,99151.52
2022-09-12T20:28:05.431Z,99152.74
2022-09-12T20:30:36.418Z,99154.78
2022-09-12T20:33:06.651Z,99154.78
2022-09-12T20:35:36.900Z,99154.78
2022-09-12T20:38:07.272Z,99155.84
2022-09-12T20:40:37.715Z,99160.83
2022-09-12T20:43:08.028Z,99160.05
2022-09-12T20:45:42.751Z,99160.05
2022-09-12T20:48:13.093Z,99162.73
2022-09-12T20:50:43.468Z,99163.91
2022-09-12T20:53:15.252Z,99163.91
2022-09-12T20:55:52.746Z,99169.37
2022-09-12T20:58:23.897Z,99169.37
2022-09-12T21:00:57.484Z,99162.44
2022-09-12T21:03:27.900Z,99166.92
2022-09-12T21:05:59.095Z,99166.92
2022-09-12T21:08:31.990Z,99162.87
2022-09-12T21:11:03.171Z,99158.45
2022-09-12T21:13:33.590Z,99162.83
2022-09-12T21:16:10.244Z,99166.69
2022-09-12T21:18:41.088Z,99153.34
2022-09-12T21:21:13.364Z,99153.34
2022-09-12T21:23:43.676Z,99158.14
2022-09-12T21:26:14.028Z,99157.10
2022-09-12T21:28:44.411Z,99157.10
2022-09-12T21:31:15.018Z,99152.34
2022-09-12T21:33:45.319Z,99159.55
2022-09-12T21:36:15.456Z,99160.47
2022-09-12T21:38:45.799Z,99160.47
2022-09-12T21:41:17.320Z,99155.41
2022-09-12T21:43:47.801Z,99150.31
2022-09-12T21:46:18.001Z,99146.40
2022-09-12T21:48:49.239Z,99146.40
2022-09-12T21:51:19.828Z,99147.91
2022-09-12T21:53:50.441Z,99144.78
2022-09-12T21:56:20.709Z,99144.78
2022-09-12T21:58:51.032Z,99135.04
2022-09-12T22:01:21.462Z,99135.88
2022-09-12T22:03:51.700Z,99132.93
2022-09-12T22:06:22.647Z,99142.94
2022-09-12T22:08:53.066Z,99142.94
2022-09-12T22:11:24.198Z,99146.63
2022-09-12T22:13:55.764Z,99153.01
2022-09-12T22:16:26.114Z,99153.01
2022-09-12T22:18:56.265Z,99146.54
2022-09-12T22:21:26.502Z,99147.29
2022-09-12T22:23:56.724Z,99142.42
2022-09-12T22:26:27.106Z,99141.33
2022-09-12T22:28:58.116Z,99131.70
2022-09-12T22:31:28.659Z,99131.36
2022-09-12T22:33:59.167Z,99125.29
2022-09-12T22:36:31.380Z,99125.29
2022-09-12T22:39:01.567Z,99130.45
2022-09-12T22:41:31.941Z,99123.77
2022-09-12T22:44:02.340Z,99123.77
2022-09-12T22:46:33.656Z,99125.61
2022-09-12T22:49:04.375Z,99128.28
2022-09-12T22:51:35.283Z,99128.80
2022-09-12T22:54:05.964Z,99132.03
2022-09-12T22:56:36.203Z,99127.62
2022-09-12T22:59:07.804Z,99127.62
2022-09-12T23:01:38.683Z,99131.70
2022-09-12T23:04:10.464Z,99125.64
2022-09-12T23:06:41.320Z,99128.74
2022-09-12T23:09:11.737Z,99125.73
2022-09-12T23:11:43.759Z,99128.05
2022-09-12T23:14:14.079Z,99130.02
2022-09-12T23:16:44.460Z,99122.03
2022-09-12T23:19:14.695Z,99122.84
2022-09-12T23:21:45.073Z,99113.52
2022-09-12T23:24:15.702Z,99114.62
2022-09-12T23:26:46.018Z,99117.34
2022-09-12T23:29:16.538Z,99115.88
2022-09-12T23:31:46.687Z,99110.38
2022-09-12T23:34:17.464Z,99110.38
2022-09-12T23:36:47.704Z,99111.23
2022-09-12T23:39:18.025Z,99104.91
2022-09-12T23:41:48.632Z,99104.91
2022-09-12T23:44:19.124Z,99106.11
2022-09-12T23:46:49.427Z,99108.55
2022-09-12T23:49:19.621Z,99108.55
2022-09-12T23:51:49.877Z,99108.64
2022-09-12T23:54:20.046Z,99100.52
2022-09-12T23:56:50.268Z,99102.27
2022-09-12T23:59:20.460Z,99093.81
